createdAt,value
2023-05-09T00:00:40.310Z,4.13
2023-05-09T00:03:14.542Z,4.11
2023-05-09T00:05:47.584Z,4.12
2023-05-09T00:08:19.715Z,4.08
2023-05-09T00:10:52.599Z,4.08
2023-05-09T00:13:24.969Z,4.04
2023-05-09T00:15:58.735Z,4.00
2023-05-09T00:18:31.401Z,3.98
2023-05-09T00:21:04.279Z,3.96
2023-05-09T00:23:36.879Z,3.92
2023-05-09T00:26:09.034Z,3.90
2023-05-09T00:28:42.263Z,3.89
2023-05-09T00:31:14.714Z,3.88
2023-05-09T00:33:46.781Z,3.85
2023-05-09T00:36:18.900Z,3.83
2023-05-09T00:38:51.275Z,3.82
2023-05-09T00:41:23.609Z,3.77
2023-05-09T00:43:55.728Z,3.77
2023-05-09T00:46:28.239Z,3.75
2023-05-09T00:49:01.952Z,3.76
2023-05-09T00:51:34.966Z,3.73
2023-05-09T00:54:09.127Z,3.74
2023-05-09T00:56:41.162Z,3.72
2023-05-09T00:59:15.288Z,3.71
2023-05-09T01:01:47.997Z,3.70
2023-05-09T01:04:20.355Z,3.67
2023-05-09T01:07:01.365Z,3.64
2023-05-09T01:10:06.673Z,3.61
2023-05-09T01:12:44.527Z,3.60
2023-05-09T01:15:34.703Z,3.58
2023-05-09T01:18:09.787Z,3.57
2023-05-09T01:20:47.882Z,3.54
2023-05-09T01:23:41.565Z,3.55
2023-05-09T01:26:28.749Z,3.52
2023-05-09T01:29:21.438Z,3.50
2023-05-09T01:31:54.678Z,3.50
2023-05-09T01:34:29.764Z,3.51
2023-05-09T01:37:04.398Z,3.51
2023-05-09T01:39:39.360Z,3.53
2023-05-09T01:42:14.463Z,3.53
2023-05-09T01:44:48.712Z,3.50
2023-05-09T01:47:22.209Z,3.49
2023-05-09T01:49:56.434Z,3.50
2023-05-09T01:52:30.642Z,3.53
2023-05-09T01:55:03.392Z,3.60
2023-05-09T01:57:38.412Z,3.65
2023-05-09T02:00:13.306Z,3.69
2023-05-09T02:02:45.397Z,3.72
2023-05-09T02:05:19.226Z,3.76
2023-05-09T02:07:52.432Z,3.79
2023-05-09T02:10:25.632Z,3.85
2023-05-09T02:12:58.634Z,3.88
2023-05-09T02:15:31.448Z,3.93
2023-05-09T02:18:03.840Z,3.98
2023-05-09T02:20:36.355Z,4.04
2023-05-09T02:23:09.847Z,4.11
2023-05-09T02:25:42.735Z,4.18
2023-05-09T02:28:15.756Z,4.27
2023-05-09T02:30:50.337Z,4.36
2023-05-09T02:33:21.686Z,4.47
2023-05-09T02:35:54.716Z,4.69
2023-05-09T02:38:27.464Z,4.66
2023-05-09T02:40:59.801Z,4.73
2023-05-09T02:43:32.074Z,4.79
2023-05-09T02:46:04.944Z,4.87
2023-05-09T02:48:38.451Z,4.94
2023-05-09T02:51:11.538Z,5.02
2023-05-09T02:53:44.215Z,5.11
2023-05-09T02:56:16.833Z,5.20
2023-05-09T02:58:51.034Z,5.29
2023-05-09T03:01:23.506Z,5.39
2023-05-09T03:03:55.937Z,5.48
2023-05-09T03:06:28.296Z,5.58
2023-05-09T03:09:01.811Z,5.69
2023-05-09T03:11:34.218Z,5.81
2023-05-09T03:14:08.500Z,5.91
2023-05-09T03:16:40.854Z,6.01
2023-05-09T03:19:14.723Z,6.14
2023-05-09T03:21:46.888Z,6.27
2023-05-09T03:24:19.024Z,6.37
2023-05-09T03:26:51.299Z,6.48
2023-05-09T03:29:23.551Z,6.57
2023-05-09T03:31:56.217Z,6.68
2023-05-09T03:34:28.782Z,6.79
2023-05-09T03:37:02.768Z,6.90
2023-05-09T03:39:35.445Z,7.03
2023-05-09T03:42:07.524Z,7.15
2023-05-09T03:44:39.645Z,7.26
2023-05-09T03:47:12.185Z,7.39
2023-05-09T03:49:44.758Z,7.49
2023-05-09T03:52:18.009Z,7.62
2023-05-09T03:54:50.920Z,7.73
2023-05-09T03:57:23.796Z,7.82
2023-05-09T03:59:57.754Z,7.92
2023-05-09T04:02:30.126Z,8.03
2023-05-09T04:05:02.908Z,8.15
2023-05-09T04:07:35.832Z,8.26
2023-05-09T04:10:09.677Z,8.38
2023-05-09T04:12:42.134Z,8.49
2023-05-09T04:15:14.993Z,8.60
2023-05-09T04:17:47.622Z,8.72
2023-05-09T04:20:19.715Z,8.83
2023-05-09T04:22:52.112Z,8.93
2023-05-09T04:25:25.025Z,9.03
2023-05-09T04:27:57.388Z,9.12
2023-05-09T04:30:29.744Z,9.21
2023-05-09T04:33:02.925Z,9.31
2023-05-09T04:35:35.699Z,9.40
2023-05-09T04:38:08.289Z,9.46
2023-05-09T04:40:41.025Z,9.56
2023-05-09T04:43:13.281Z,9.65
2023-05-09T04:45:46.694Z,9.74
2023-05-09T04:48:19.270Z,9.84
2023-05-09T04:50:51.408Z,9.91
2023-05-09T04:53:23.555Z,9.96
2023-05-09T04:55:56.468Z,10.03
2023-05-09T04:58:28.786Z,10.10
2023-05-09T05:01:01.122Z,10.15
2023-05-09T05:03:33.496Z,10.22
2023-05-09T05:06:06.073Z,10.29
2023-05-09T05:08:38.192Z,10.33
2023-05-09T05:11:10.486Z,10.42
2023-05-09T05:13:42.810Z,10.49
2023-05-09T05:16:15.217Z,10.56
2023-05-09T05:18:48.261Z,10.64
2023-05-09T05:21:20.614Z,10.74
2023-05-09T05:23:53.282Z,10.83
2023-05-09T05:26:25.779Z,10.96
2023-05-09T05:28:58.099Z,11.08
2023-05-09T05:31:31.619Z,11.20
2023-05-09T05:34:03.770Z,11.28
2023-05-09T05:36:37.444Z,11.37
2023-05-09T05:39:09.575Z,11.46
2023-05-09T05:41:41.537Z,11.54
2023-05-09T05:44:14.562Z,11.62
2023-05-09T05:46:47.372Z,11.68
2023-05-09T05:49:19.437Z,11.70
2023-05-09T05:51:51.733Z,11.74
2023-05-09T05:54:25.590Z,11.80
2023-05-09T05:56:58.634Z,11.86
2023-05-09T05:59:31.127Z,11.91
2023-05-09T06:02:03.420Z,11.98
2023-05-09T06:04:35.990Z,12.05
2023-05-09T06:07:08.494Z,12.14
2023-05-09T06:09:40.790Z,12.19
2023-05-09T06:12:14.519Z,12.27
2023-05-09T06:14:46.953Z,12.48
2023-05-09T06:17:19.680Z,13.60
2023-05-09T06:19:52.083Z,14.49
2023-05-09T06:22:24.166Z,15.23
2023-05-09T06:24:57.016Z,15.43
2023-05-09T06:27:29.070Z,15.43
2023-05-09T06:30:08.356Z,15.37
2023-05-09T06:32:36.846Z,15.16
2023-05-09T06:35:10.616Z,14.90
2023-05-09T06:37:44.303Z,14.69
2023-05-09T06:40:18.028Z,14.53
2023-05-09T06:42:50.234Z,14.40
2023-05-09T06:45:22.728Z,14.30
2023-05-09T06:47:54.944Z,14.24
2023-05-09T06:50:27.264Z,14.21
2023-05-09T06:52:59.476Z,14.17
2023-05-09T06:55:31.656Z,14.18
2023-05-09T06:58:04.927Z,14.11
2023-05-09T07:00:37.006Z,14.11
2023-05-09T07:03:09.455Z,14.13
2023-05-09T07:05:41.940Z,14.18
2023-05-09T07:08:14.125Z,14.22
2023-05-09T07:10:46.670Z,14.28
2023-05-09T07:13:18.941Z,14.35
2023-05-09T07:15:51.458Z,14.48
2023-05-09T07:18:23.640Z,14.52
2023-05-09T07:20:55.906Z,14.54
2023-05-09T07:23:28.014Z,14.69
2023-05-09T07:26:00.115Z,14.92
2023-05-09T07:28:32.445Z,15.17
2023-05-09T07:31:06.225Z,15.43
2023-05-09T07:33:38.746Z,15.62
2023-05-09T07:36:12.803Z,15.69
2023-05-09T07:38:45.119Z,15.73
2023-05-09T07:41:17.707Z,15.74
2023-05-09T07:43:50.239Z,15.73
2023-05-09T07:46:22.965Z,15.73
2023-05-09T07:48:55.673Z,15.65
2023-05-09T07:51:28.068Z,15.61
2023-05-09T07:54:00.285Z,15.56
2023-05-09T07:56:32.433Z,15.49
2023-05-09T07:59:04.593Z,15.35
2023-05-09T08:01:36.663Z,15.21
2023-05-09T08:04:09.904Z,15.08
2023-05-09T08:06:42.133Z,14.95
2023-05-09T08:09:14.154Z,14.96
2023-05-09T08:11:47.171Z,15.05
2023-05-09T08:14:19.590Z,15.19
2023-05-09T08:16:52.032Z,15.43
2023-05-09T08:19:25.777Z,15.89
2023-05-09T08:21:58.138Z,15.89
2023-05-09T08:24:32.011Z,16.36
2023-05-09T08:27:04.901Z,16.36
2023-05-09T08:29:36.980Z,16.49
2023-05-09T08:32:10.067Z,16.55
2023-05-09T08:34:42.577Z,16.67
2023-05-09T08:37:16.360Z,16.75
2023-05-09T08:39:49.098Z,16.84
2023-05-09T08:42:25.609Z,16.90
2023-05-09T08:44:57.921Z,17.12
2023-05-09T08:47:30.586Z,17.41
2023-05-09T08:50:04.487Z,17.50
2023-05-09T08:52:37.026Z,17.65
2023-05-09T08:55:10.239Z,17.78
2023-05-09T08:57:42.643Z,17.84
2023-05-09T09:00:20.246Z,17.91
2023-05-09T09:02:53.589Z,17.76
2023-05-09T09:05:40.663Z,17.61
2023-05-09T09:08:00.784Z,17.65
2023-05-09T09:10:34.360Z,18.02
2023-05-09T09:13:07.823Z,17.50
2023-05-09T09:15:42.073Z,17.34
2023-05-09T09:18:19.905Z,17.13
2023-05-09T09:20:55.348Z,16.92
2023-05-09T09:23:30.152Z,16.70
2023-05-09T09:26:07.178Z,16.47
2023-05-09T09:28:40.304Z,16.31
2023-05-09T09:31:29.277Z,16.20
2023-05-09T09:34:05.111Z,16.20
2023-05-09T09:36:37.160Z,16.29
2023-05-09T09:39:09.788Z,16.30
2023-05-09T09:41:42.686Z,16.71
2023-05-09T09:44:16.917Z,16.71
2023-05-09T09:46:51.508Z,16.88
2023-05-09T09:49:24.946Z,17.08
2023-05-09T09:51:58.743Z,17.37
2023-05-09T09:54:33.625Z,17.60
2023-05-09T09:57:05.965Z,17.87
2023-05-09T09:59:38.203Z,18.20
2023-05-09T10:02:11.900Z,18.53
2023-05-09T10:04:45.029Z,18.78
2023-05-09T10:07:17.223Z,19.04
2023-05-09T10:09:49.588Z,19.26
2023-05-09T10:12:23.586Z,19.38
2023-05-09T10:14:56.526Z,19.61
2023-05-09T10:17:31.527Z,19.77
2023-05-09T10:20:06.891Z,19.90
2023-05-09T10:22:41.204Z,20.04
2023-05-09T10:25:21.642Z,20.13
2023-05-09T10:27:55.807Z,20.13
2023-05-09T10:30:31.453Z,20.24
2023-05-09T10:33:07.892Z,20.36
2023-05-09T10:35:48.346Z,20.47
2023-05-09T10:38:20.709Z,20.50
2023-05-09T10:40:54.610Z,20.51
2023-05-09T10:43:27.532Z,20.42
2023-05-09T10:45:59.780Z,20.31
2023-05-09T10:48:36.455Z,20.11
2023-05-09T10:51:10.615Z,20.08
2023-05-09T10:53:48.156Z,20.10
2023-05-09T10:56:36.030Z,20.16
2023-05-09T10:59:09.826Z,20.21
2023-05-09T11:01:42.081Z,20.35
2023-05-09T11:04:15.835Z,20.34
2023-05-09T11:06:51.640Z,20.17
2023-05-09T11:09:30.153Z,19.93
2023-05-09T11:12:11.157Z,19.71
2023-05-09T11:14:48.794Z,19.52
2023-05-09T11:17:29.568Z,19.35
2023-05-09T11:20:05.525Z,19.20
2023-05-09T11:22:44.738Z,19.41
2023-05-09T11:25:22.327Z,19.73
2023-05-09T11:27:57.768Z,21.19
2023-05-09T11:30:42.050Z,22.80
2023-05-09T11:33:33.627Z,23.48
2023-05-09T11:36:33.385Z,23.46
2023-05-09T11:39:12.508Z,23.18
2023-05-09T11:41:47.043Z,22.84
2023-05-09T11:44:21.740Z,22.56
2023-05-09T11:46:53.939Z,22.63
2023-05-09T11:49:26.023Z,22.93
2023-05-09T11:52:00.594Z,24.14
2023-05-09T11:54:31.954Z,26.16
2023-05-09T11:57:03.896Z,27.88
2023-05-09T11:59:36.970Z,29.86
2023-05-09T12:02:09.150Z,30.93
2023-05-09T12:04:41.732Z,31.36
2023-05-09T12:07:14.362Z,30.98
2023-05-09T12:09:46.858Z,30.41
2023-05-09T12:12:20.753Z,30.00
2023-05-09T12:14:53.908Z,31.38
2023-05-09T12:17:26.849Z,31.41
2023-05-09T12:20:02.708Z,30.50
2023-05-09T12:22:37.798Z,29.14
2023-05-09T12:25:12.218Z,27.70
2023-05-09T12:27:44.933Z,26.57
2023-05-09T12:30:18.761Z,25.57
2023-05-09T12:32:51.089Z,24.65
2023-05-09T12:35:26.598Z,23.86
2023-05-09T12:38:00.523Z,23.09
2023-05-09T12:40:33.116Z,22.47
2023-05-09T12:43:05.445Z,21.97
2023-05-09T12:45:38.942Z,21.36
2023-05-09T12:48:11.816Z,20.79
2023-05-09T12:50:46.906Z,20.31
2023-05-09T12:53:32.412Z,19.79
2023-05-09T12:56:06.748Z,19.32
2023-05-09T12:58:39.676Z,18.92
2023-05-09T13:01:12.608Z,18.63
2023-05-09T13:03:45.157Z,18.68
2023-05-09T13:06:17.238Z,19.20
2023-05-09T13:08:52.799Z,19.23
2023-05-09T13:11:26.157Z,19.13
2023-05-09T13:13:58.967Z,20.18
2023-05-09T13:16:31.139Z,23.52
2023-05-09T13:19:05.125Z,27.11
2023-05-09T13:21:37.810Z,30.65
2023-05-09T13:24:09.940Z,33.40
2023-05-09T13:26:42.458Z,35.77
2023-05-09T13:29:14.568Z,37.47
2023-05-09T13:31:46.814Z,37.53
2023-05-09T13:34:18.914Z,38.16
2023-05-09T13:36:51.567Z,38.88
2023-05-09T13:39:23.562Z,39.34
2023-05-09T13:41:55.729Z,39.09
2023-05-09T13:44:29.091Z,38.04
2023-05-09T13:47:01.138Z,36.33
2023-05-09T13:49:33.710Z,34.93
2023-05-09T13:52:06.846Z,32.95
2023-05-09T13:54:39.160Z,32.01
2023-05-09T13:57:11.288Z,30.75
2023-05-09T13:59:44.295Z,29.40
2023-05-09T14:02:16.480Z,27.94
2023-05-09T14:04:48.701Z,26.49
2023-05-09T14:07:21.771Z,25.11
2023-05-09T14:09:58.800Z,23.84
2023-05-09T14:12:29.116Z,22.68
2023-05-09T14:15:02.265Z,21.85
2023-05-09T14:17:34.780Z,21.19
2023-05-09T14:20:08.472Z,21.08
2023-05-09T14:22:40.969Z,22.91
2023-05-09T14:25:13.686Z,25.47
2023-05-09T14:27:45.878Z,28.12
2023-05-09T14:30:18.263Z,30.40
2023-05-09T14:32:50.908Z,32.60
2023-05-09T14:35:23.487Z,33.43
2023-05-09T14:37:55.711Z,34.19
2023-05-09T14:40:29.767Z,35.39
2023-05-09T14:43:02.991Z,36.45
2023-05-09T14:45:35.075Z,36.85
2023-05-09T14:48:07.230Z,36.80
2023-05-09T14:50:39.444Z,36.70
2023-05-09T14:53:11.935Z,36.96
2023-05-09T14:55:44.071Z,37.04
2023-05-09T14:58:17.673Z,37.10
2023-05-09T15:00:50.665Z,37.05
2023-05-09T15:03:22.810Z,36.89
2023-05-09T15:05:55.203Z,35.63
2023-05-09T15:08:27.720Z,35.48
2023-05-09T15:11:00.186Z,34.57
2023-05-09T15:13:32.571Z,32.34
2023-05-09T15:16:04.775Z,29.95
2023-05-09T15:18:37.305Z,27.67
2023-05-09T15:21:09.858Z,25.65
2023-05-09T15:23:42.409Z,24.02
2023-05-09T15:26:15.019Z,22.77
2023-05-09T15:28:47.393Z,21.86
2023-05-09T15:31:24.145Z,21.14
2023-05-09T15:33:56.339Z,20.56
2023-05-09T15:36:34.054Z,20.05
2023-05-09T15:39:08.022Z,19.65
2023-05-09T15:41:40.241Z,19.33
2023-05-09T15:44:14.041Z,19.08
2023-05-09T15:46:46.242Z,18.75
2023-05-09T15:49:18.605Z,18.48
2023-05-09T15:51:50.792Z,18.18
2023-05-09T15:54:24.696Z,17.97
2023-05-09T15:56:56.978Z,17.73
2023-05-09T15:59:29.554Z,17.54
2023-05-09T16:02:01.833Z,17.32
2023-05-09T16:04:34.828Z,17.08
2023-05-09T16:07:07.246Z,16.85
2023-05-09T16:09:39.393Z,16.68
2023-05-09T16:12:11.493Z,16.47
2023-05-09T16:14:43.483Z,16.30
2023-05-09T16:17:15.730Z,16.12
2023-05-09T16:19:47.798Z,15.97
2023-05-09T16:22:19.960Z,15.78
2023-05-09T16:24:52.032Z,15.64
2023-05-09T16:27:24.734Z,15.51
2023-05-09T16:29:57.009Z,15.39
2023-05-09T16:32:29.145Z,15.27
2023-05-09T16:35:01.412Z,15.14
2023-05-09T16:37:35.698Z,14.99
2023-05-09T16:40:08.440Z,14.82
2023-05-09T16:42:42.793Z,14.68
2023-05-09T16:45:14.820Z,14.44
2023-05-09T16:47:47.596Z,14.42
2023-05-09T16:50:19.774Z,14.03
2023-05-09T16:52:52.118Z,14.03
2023-05-09T16:55:24.557Z,13.99
2023-05-09T16:57:56.650Z,13.87
2023-05-09T17:00:29.381Z,13.74
2023-05-09T17:03:02.584Z,13.63
2023-05-09T17:05:34.976Z,13.50
2023-05-09T17:08:07.031Z,13.37
2023-05-09T17:10:41.410Z,13.29
2023-05-09T17:13:13.393Z,13.20
2023-05-09T17:15:45.899Z,13.14
2023-05-09T17:18:29.170Z,13.07
2023-05-09T17:20:52.749Z,13.00
2023-05-09T17:23:25.248Z,12.93
2023-05-09T17:25:57.560Z,12.81
2023-05-09T17:28:29.464Z,12.71
2023-05-09T17:31:01.906Z,12.60
2023-05-09T17:33:34.269Z,12.50
2023-05-09T17:36:06.732Z,12.42
2023-05-09T17:38:39.544Z,12.35
2023-05-09T17:41:12.227Z,12.27
2023-05-09T17:43:44.881Z,12.19
2023-05-09T17:46:17.112Z,12.11
2023-05-09T17:48:49.426Z,12.04
2023-05-09T17:51:21.989Z,11.96
2023-05-09T17:53:54.335Z,11.86
2023-05-09T17:56:26.425Z,11.78
2023-05-09T17:59:00.152Z,11.72
2023-05-09T18:01:32.261Z,11.63
2023-05-09T18:04:04.574Z,11.58
2023-05-09T18:06:37.616Z,11.55
2023-05-09T18:09:10.213Z,11.48
2023-05-09T18:11:42.959Z,11.43
2023-05-09T18:14:15.526Z,11.43
2023-05-09T18:16:48.122Z,11.38
2023-05-09T18:19:20.349Z,11.34
2023-05-09T18:21:52.465Z,11.32
2023-05-09T18:24:26.008Z,11.27
2023-05-09T18:26:59.764Z,11.24
2023-05-09T18:29:32.383Z,11.19
2023-05-09T18:32:06.963Z,11.09
2023-05-09T18:34:42.683Z,10.99
2023-05-09T18:37:15.012Z,10.95
2023-05-09T18:39:47.812Z,10.89
2023-05-09T18:42:19.933Z,10.84
2023-05-09T18:44:52.025Z,10.78
2023-05-09T18:47:25.559Z,10.73
2023-05-09T18:49:58.490Z,10.69
2023-05-09T18:52:34.838Z,10.66
2023-05-09T18:55:07.938Z,10.63
2023-05-09T18:57:39.988Z,10.65
2023-05-09T19:00:13.080Z,10.69
2023-05-09T19:02:45.399Z,10.73
2023-05-09T19:05:17.619Z,10.81
2023-05-09T19:07:49.897Z,10.90
2023-05-09T19:10:21.959Z,10.97
2023-05-09T19:12:54.399Z,11.08
2023-05-09T19:15:26.894Z,11.18
2023-05-09T19:17:59.179Z,11.28
2023-05-09T19:20:31.612Z,11.41
2023-05-09T19:23:03.772Z,11.49
2023-05-09T19:25:37.090Z,11.58
2023-05-09T19:28:09.300Z,11.64
2023-05-09T19:30:41.495Z,11.70
2023-05-09T19:33:13.924Z,11.74
2023-05-09T19:35:46.322Z,11.80
2023-05-09T19:38:18.657Z,11.80
2023-05-09T19:40:51.315Z,11.81
2023-05-09T19:43:23.552Z,11.83
2023-05-09T19:45:55.704Z,11.83
2023-05-09T19:48:27.768Z,11.84
2023-05-09T19:50:59.989Z,11.84
2023-05-09T19:53:32.267Z,11.85
2023-05-09T19:56:04.434Z,11.86
2023-05-09T19:58:37.021Z,11.85
2023-05-09T20:01:09.256Z,11.91
2023-05-09T20:03:43.063Z,11.95
2023-05-09T20:09:04.768Z,12.04
2023-05-09T20:11:36.903Z,12.05
2023-05-09T20:14:09.080Z,11.99
2023-05-09T20:16:42.905Z,11.95
2023-05-09T20:19:16.075Z,11.91
2023-05-09T20:21:48.303Z,11.86
2023-05-09T20:24:21.326Z,11.82
2023-05-09T20:26:55.141Z,11.79
2023-05-09T20:29:27.452Z,11.75
2023-05-09T20:31:59.911Z,11.73
2023-05-09T20:34:32.520Z,11.67
2023-05-09T20:37:04.952Z,11.64
2023-05-09T20:39:37.041Z,11.59
2023-05-09T20:42:09.145Z,11.56
2023-05-09T20:44:42.248Z,11.54
2023-05-09T20:47:14.465Z,11.52
2023-05-09T20:49:46.662Z,11.50
2023-05-09T20:52:19.025Z,11.47
2023-05-09T20:54:51.767Z,11.46
2023-05-09T20:57:23.895Z,11.47
2023-05-09T20:59:56.083Z,11.49
2023-05-09T21:02:28.273Z,11.51
2023-05-09T21:05:00.454Z,11.50
2023-05-09T21:07:34.194Z,11.49
2023-05-09T21:10:06.722Z,11.48
2023-05-09T21:12:39.624Z,11.44
2023-05-09T21:15:12.248Z,11.41
2023-05-09T21:17:44.594Z,11.42
2023-05-09T21:20:17.343Z,11.48
2023-05-09T21:22:49.916Z,11.56
2023-05-09T21:25:22.127Z,11.56
2023-05-09T21:27:54.487Z,11.53
2023-05-09T21:30:26.590Z,11.51
2023-05-09T21:32:58.936Z,11.50
2023-05-09T21:35:31.257Z,11.52
2023-05-09T21:38:03.821Z,11.46
2023-05-09T21:40:35.964Z,11.44
2023-05-09T21:43:08.232Z,11.41
2023-05-09T21:45:40.533Z,11.38
2023-05-09T21:48:12.810Z,11.40
2023-05-09T21:50:47.610Z,11.47
2023-05-09T21:53:19.902Z,11.51
2023-05-09T21:55:52.095Z,11.50
2023-05-09T21:58:24.290Z,11.49
2023-05-09T22:00:56.316Z,11.53
2023-05-09T22:03:28.794Z,11.55
2023-05-09T22:06:01.168Z,11.56
2023-05-09T22:08:33.466Z,11.54
2023-05-09T22:11:06.022Z,11.50
2023-05-09T22:13:38.364Z,11.45
2023-05-09T22:16:11.067Z,11.45
2023-05-09T22:18:43.383Z,11.43
2023-05-09T22:21:15.415Z,11.43
2023-05-09T22:23:47.596Z,11.39
2023-05-09T22:26:19.800Z,11.40
2023-05-09T22:28:51.991Z,11.41
2023-05-09T22:31:24.061Z,11.37
2023-05-09T22:33:56.142Z,11.37
2023-05-09T22:36:28.203Z,11.40
2023-05-09T22:39:02.167Z,11.37
2023-05-09T22:41:34.895Z,11.37
2023-05-09T22:44:07.139Z,11.37
2023-05-09T22:46:39.148Z,11.36
2023-05-09T22:49:14.211Z,11.35
2023-05-09T22:51:46.509Z,11.38
2023-05-09T22:54:20.447Z,11.34
2023-05-09T22:56:52.478Z,11.30
2023-05-09T22:59:24.522Z,11.30
2023-05-09T23:01:58.201Z,11.25
2023-05-09T23:04:30.922Z,11.23
2023-05-09T23:07:02.972Z,11.18
2023-05-09T23:09:35.382Z,11.12
2023-05-09T23:12:09.686Z,11.06
2023-05-09T23:14:42.062Z,10.99
2023-05-09T23:17:14.070Z,10.97
2023-05-09T23:19:46.283Z,10.98
2023-05-09T23:22:18.418Z,10.98
2023-05-09T23:24:50.461Z,10.98
2023-05-09T23:27:22.689Z,10.95
2023-05-09T23:29:54.756Z,10.93
2023-05-09T23:32:26.900Z,10.89
2023-05-09T23:34:59.020Z,10.87
2023-05-09T23:37:32.708Z,10.87
2023-05-09T23:40:05.527Z,10.86
2023-05-09T23:42:36.816Z,10.87
2023-05-09T23:45:09.654Z,10.88
2023-05-09T23:47:41.794Z,10.90
2023-05-09T23:50:14.102Z,10.86
2023-05-09T23:52:48.189Z,10.84
2023-05-09T23:55:20.799Z,10.83
2023-05-09T23:57:52.981Z,10.81
